sensor_id;sensor_type;location;lat;lon;timestamp;P1;durP1;ratioP1;P2;durP2;ratioP2
80732;SDS011;70130;44.534;18.678;2024-02-15T00:02:20;125.50;;;51.37;;
80732;SDS011;70130;44.534;18.678;2024-02-15T00:04:46;128.93;;;52.30;;
80732;SDS011;70130;44.534;18.678;2024-02-15T00:07:11;132.03;;;53.07;;
80732;SDS011;70130;44.534;18.678;2024-02-15T00:09:37;127.67;;;53.17;;
80732;SDS011;70130;44.534;18.678;2024-02-15T00:12:02;127.27;;;51.07;;
80732;SDS011;70130;44.534;18.678;2024-02-15T00:14:28;120.57;;;49.47;;
80732;SDS011;70130;44.534;18.678;2024-02-15T00:16:54;115.47;;;46.30;;
80732;SDS011;70130;44.534;18.678;2024-02-15T00:19:20;106.70;;;44.20;;
80732;SDS011;70130;44.534;18.678;2024-02-15T00:21:47;113.97;;;43.83;;
80732;SDS011;70130;44.534;18.678;2024-02-15T00:24:13;123.27;;;51.63;;
80732;SDS011;70130;44.534;18.678;2024-02-15T00:26:40;139.77;;;57.17;;
80732;SDS011;70130;44.534;18.678;2024-02-15T00:29:05;122.33;;;49.63;;
80732;SDS011;70130;44.534;18.678;2024-02-15T00:31:31;128.63;;;49.07;;
80732;SDS011;70130;44.534;18.678;2024-02-15T00:33:57;163.30;;;59.80;;
80732;SDS011;70130;44.534;18.678;2024-02-15T00:36:24;172.20;;;65.53;;
80732;SDS011;70130;44.534;18.678;2024-02-15T00:38:50;174.20;;;65.47;;
80732;SDS011;70130;44.534;18.678;2024-02-15T00:41:17;169.43;;;66.80;;
80732;SDS011;70130;44.534;18.678;2024-02-15T00:43:45;150.93;;;60.07;;
80732;SDS011;70130;44.534;18.678;2024-02-15T00:46:10;129.53;;;51.77;;
80732;SDS011;70130;44.534;18.678;2024-02-15T00:48:36;116.87;;;48.30;;
80732;SDS011;70130;44.534;18.678;2024-02-15T00:51:02;127.13;;;51.93;;
80732;SDS011;70130;44.534;18.678;2024-02-15T00:53:28;106.93;;;43.33;;
80732;SDS011;70130;44.534;18.678;2024-02-15T00:55:55;95.47;;;39.10;;
80732;SDS011;70130;44.534;18.678;2024-02-15T00:58:21;80.27;;;33.80;;
80732;SDS011;70130;44.534;18.678;2024-02-15T01:00:47;64.70;;;29.33;;
80732;SDS011;70130;44.534;18.678;2024-02-15T01:03:12;77.40;;;32.87;;
80732;SDS011;70130;44.534;18.678;2024-02-15T01:05:38;86.43;;;35.93;;
80732;SDS011;70130;44.534;18.678;2024-02-15T01:08:03;81.50;;;34.67;;
80732;SDS011;70130;44.534;18.678;2024-02-15T01:10:30;81.37;;;34.23;;
80732;SDS011;70130;44.534;18.678;2024-02-15T01:12:56;78.13;;;34.53;;
80732;SDS011;70130;44.534;18.678;2024-02-15T01:15:21;87.70;;;38.03;;
80732;SDS011;70130;44.534;18.678;2024-02-15T01:17:47;101.27;;;41.93;;
80732;SDS011;70130;44.534;18.678;2024-02-15T01:20:13;93.90;;;42.60;;
80732;SDS011;70130;44.534;18.678;2024-02-15T01:22:38;88.47;;;38.73;;
80732;SDS011;70130;44.534;18.678;2024-02-15T01:25:04;92.37;;;41.40;;
80732;SDS011;70130;44.534;18.678;2024-02-15T01:27:30;96.67;;;41.07;;
80732;SDS011;70130;44.534;18.678;2024-02-15T01:29:58;82.20;;;36.40;;
80732;SDS011;70130;44.534;18.678;2024-02-15T01:32:24;80.07;;;34.97;;
80732;SDS011;70130;44.534;18.678;2024-02-15T01:34:50;83.80;;;35.00;;
80732;SDS011;70130;44.534;18.678;2024-02-15T01:37:19;90.20;;;38.80;;
80732;SDS011;70130;44.534;18.678;2024-02-15T01:39:45;87.33;;;36.20;;
80732;SDS011;70130;44.534;18.678;2024-02-15T01:42:11;91.43;;;38.60;;
80732;SDS011;70130;44.534;18.678;2024-02-15T01:44:39;78.50;;;35.77;;
80732;SDS011;70130;44.534;18.678;2024-02-15T01:47:12;81.60;;;35.13;;
80732;SDS011;70130;44.534;18.678;2024-02-15T01:49:38;81.50;;;34.40;;
80732;SDS011;70130;44.534;18.678;2024-02-15T01:52:06;82.70;;;35.90;;
80732;SDS011;70130;44.534;18.678;2024-02-15T01:54:35;80.73;;;36.30;;
80732;SDS011;70130;44.534;18.678;2024-02-15T01:57:04;85.33;;;35.27;;
80732;SDS011;70130;44.534;18.678;2024-02-15T01:59:30;91.83;;;38.37;;
80732;SDS011;70130;44.534;18.678;2024-02-15T02:01:56;101.97;;;42.03;;
80732;SDS011;70130;44.534;18.678;2024-02-15T02:04:22;95.53;;;43.13;;
80732;SDS011;70130;44.534;18.678;2024-02-15T02:06:47;91.23;;;40.67;;
80732;SDS011;70130;44.534;18.678;2024-02-15T02:09:13;96.43;;;43.47;;
80732;SDS011;70130;44.534;18.678;2024-02-15T02:11:40;121.20;;;51.13;;
80732;SDS011;70130;44.534;18.678;2024-02-15T02:14:10;110.65;;;46.67;;
80732;SDS011;70130;44.534;18.678;2024-02-15T02:16:36;100.97;;;44.63;;
80732;SDS011;70130;44.534;18.678;2024-02-15T02:19:04;95.47;;;40.93;;
80732;SDS011;70130;44.534;18.678;2024-02-15T02:21:34;88.20;;;39.00;;
80732;SDS011;70130;44.534;18.678;2024-02-15T02:24:04;98.50;;;41.10;;
80732;SDS011;70130;44.534;18.678;2024-02-15T02:26:38;95.83;;;43.97;;
80732;SDS011;70130;44.534;18.678;2024-02-15T02:29:04;91.47;;;39.90;;
80732;SDS011;70130;44.534;18.678;2024-02-15T02:31:36;90.03;;;39.73;;
80732;SDS011;70130;44.534;18.678;2024-02-15T02:34:02;80.80;;;36.57;;
80732;SDS011;70130;44.534;18.678;2024-02-15T02:36:28;82.33;;;34.90;;
80732;SDS011;70130;44.534;18.678;2024-02-15T02:38:54;75.83;;;33.83;;
80732;SDS011;70130;44.534;18.678;2024-02-15T02:41:20;73.67;;;32.77;;
80732;SDS011;70130;44.534;18.678;2024-02-15T02:43:46;77.90;;;34.40;;
80732;SDS011;70130;44.534;18.678;2024-02-15T02:46:12;67.07;;;28.73;;
80732;SDS011;70130;44.534;18.678;2024-02-15T02:48:38;61.60;;;29.10;;
80732;SDS011;70130;44.534;18.678;2024-02-15T02:51:04;72.33;;;30.40;;
80732;SDS011;70130;44.534;18.678;2024-02-15T02:53:31;73.40;;;35.00;;
80732;SDS011;70130;44.534;18.678;2024-02-15T02:55:56;76.50;;;34.83;;
80732;SDS011;70130;44.534;18.678;2024-02-15T02:58:22;71.00;;;32.43;;
80732;SDS011;70130;44.534;18.678;2024-02-15T03:00:48;74.90;;;32.33;;
80732;SDS011;70130;44.534;18.678;2024-02-15T03:03:15;72.63;;;29.40;;
80732;SDS011;70130;44.534;18.678;2024-02-15T03:05:41;64.93;;;29.90;;
80732;SDS011;70130;44.534;18.678;2024-02-15T03:08:13;73.03;;;32.77;;
80732;SDS011;70130;44.534;18.678;2024-02-15T03:10:38;77.53;;;33.93;;
80732;SDS011;70130;44.534;18.678;2024-02-15T03:13:05;68.37;;;32.67;;
80732;SDS011;70130;44.534;18.678;2024-02-15T03:15:30;73.40;;;32.93;;
80732;SDS011;70130;44.534;18.678;2024-02-15T03:17:58;65.63;;;31.87;;
80732;SDS011;70130;44.534;18.678;2024-02-15T03:20:24;58.80;;;27.20;;
80732;SDS011;70130;44.534;18.678;2024-02-15T03:22:56;63.50;;;29.63;;
80732;SDS011;70130;44.534;18.678;2024-02-15T03:25:23;64.27;;;27.40;;
80732;SDS011;70130;44.534;18.678;2024-02-15T03:27:50;60.17;;;29.43;;
80732;SDS011;70130;44.534;18.678;2024-02-15T03:30:17;59.23;;;26.70;;
80732;SDS011;70130;44.534;18.678;2024-02-15T03:32:46;65.03;;;29.93;;
80732;SDS011;70130;44.534;18.678;2024-02-15T03:35:16;71.83;;;28.57;;
80732;SDS011;70130;44.534;18.678;2024-02-15T03:37:43;61.03;;;28.07;;
80732;SDS011;70130;44.534;18.678;2024-02-15T03:40:09;60.23;;;27.13;;
80732;SDS011;70130;44.534;18.678;2024-02-15T03:42:35;58.17;;;27.57;;
80732;SDS011;70130;44.534;18.678;2024-02-15T03:45:04;57.10;;;28.80;;
80732;SDS011;70130;44.534;18.678;2024-02-15T03:47:34;63.20;;;30.17;;
80732;SDS011;70130;44.534;18.678;2024-02-15T03:50:07;69.00;;;28.80;;
80732;SDS011;70130;44.534;18.678;2024-02-15T03:52:35;67.50;;;28.93;;
80732;SDS011;70130;44.534;18.678;2024-02-15T03:55:01;60.07;;;26.13;;
80732;SDS011;70130;44.534;18.678;2024-02-15T03:57:30;52.73;;;24.53;;
80732;SDS011;70130;44.534;18.678;2024-02-15T03:59:55;60.40;;;25.67;;
80732;SDS011;70130;44.534;18.678;2024-02-15T04:02:24;52.10;;;25.53;;
80732;SDS011;70130;44.534;18.678;2024-02-15T04:04:54;55.00;;;26.05;;
80732;SDS011;70130;44.534;18.678;2024-02-15T04:07:21;54.80;;;25.73;;
80732;SDS011;70130;44.534;18.678;2024-02-15T04:09:47;50.07;;;23.70;;
80732;SDS011;70130;44.534;18.678;2024-02-15T04:12:13;53.90;;;25.17;;
80732;SDS011;70130;44.534;18.678;2024-02-15T04:14:40;51.70;;;24.87;;
80732;SDS011;70130;44.534;18.678;2024-02-15T04:17:06;55.30;;;24.17;;
80732;SDS011;70130;44.534;18.678;2024-02-15T04:19:33;65.63;;;28.83;;
80732;SDS011;70130;44.534;18.678;2024-02-15T04:21:59;60.93;;;27.73;;
80732;SDS011;70130;44.534;18.678;2024-02-15T04:24:28;66.27;;;28.53;;
80732;SDS011;70130;44.534;18.678;2024-02-15T04:26:54;58.23;;;27.07;;
80732;SDS011;70130;44.534;18.678;2024-02-15T04:29:20;59.37;;;27.90;;
80732;SDS011;70130;44.534;18.678;2024-02-15T04:31:46;54.37;;;27.67;;
80732;SDS011;70130;44.534;18.678;2024-02-15T04:34:15;54.80;;;26.23;;
80732;SDS011;70130;44.534;18.678;2024-02-15T04:36:43;56.03;;;25.73;;
80732;SDS011;70130;44.534;18.678;2024-02-15T04:39:15;62.47;;;29.03;;
80732;SDS011;70130;44.534;18.678;2024-02-15T04:41:49;62.07;;;29.73;;
80732;SDS011;70130;44.534;18.678;2024-02-15T04:44:16;56.00;;;29.10;;
80732;SDS011;70130;44.534;18.678;2024-02-15T04:46:41;62.70;;;28.13;;
80732;SDS011;70130;44.534;18.678;2024-02-15T04:49:10;49.00;;;25.63;;
80732;SDS011;70130;44.534;18.678;2024-02-15T04:51:35;52.70;;;25.90;;
80732;SDS011;70130;44.534;18.678;2024-02-15T04:54:01;62.23;;;25.00;;
80732;SDS011;70130;44.534;18.678;2024-02-15T04:56:27;58.77;;;26.23;;
80732;SDS011;70130;44.534;18.678;2024-02-15T04:58:53;58.70;;;27.07;;
80732;SDS011;70130;44.534;18.678;2024-02-15T05:01:19;59.70;;;28.10;;
80732;SDS011;70130;44.534;18.678;2024-02-15T05:03:44;59.33;;;28.43;;
80732;SDS011;70130;44.534;18.678;2024-02-15T05:06:10;68.67;;;28.87;;
80732;SDS011;70130;44.534;18.678;2024-02-15T05:08:40;61.63;;;30.63;;
80732;SDS011;70130;44.534;18.678;2024-02-15T05:11:12;72.43;;;31.13;;
80732;SDS011;70130;44.534;18.678;2024-02-15T05:13:43;63.90;;;29.70;;
80732;SDS011;70130;44.534;18.678;2024-02-15T05:16:10;65.53;;;28.53;;
80732;SDS011;70130;44.534;18.678;2024-02-15T05:18:36;63.03;;;27.73;;
80732;SDS011;70130;44.534;18.678;2024-02-15T05:21:03;62.27;;;28.43;;
80732;SDS011;70130;44.534;18.678;2024-02-15T05:23:29;68.63;;;30.20;;
80732;SDS011;70130;44.534;18.678;2024-02-15T05:25:55;66.23;;;26.70;;
80732;SDS011;70130;44.534;18.678;2024-02-15T05:28:21;60.53;;;26.47;;
80732;SDS011;70130;44.534;18.678;2024-02-15T05:33:40;55.70;;;25.60;;
80732;SDS011;70130;44.534;18.678;2024-02-15T05:36:12;63.53;;;29.13;;
80732;SDS011;70130;44.534;18.678;2024-02-15T05:38:41;63.50;;;29.97;;
80732;SDS011;70130;44.534;18.678;2024-02-15T05:41:10;71.00;;;32.03;;
80732;SDS011;70130;44.534;18.678;2024-02-15T05:43:37;83.23;;;43.70;;
80732;SDS011;70130;44.534;18.678;2024-02-15T05:46:04;87.07;;;44.83;;
80732;SDS011;70130;44.534;18.678;2024-02-15T05:48:32;78.37;;;35.90;;
80732;SDS011;70130;44.534;18.678;2024-02-15T05:51:03;72.47;;;33.37;;
80732;SDS011;70130;44.534;18.678;2024-02-15T05:53:30;75.60;;;34.97;;
80732;SDS011;70130;44.534;18.678;2024-02-15T05:55:56;72.83;;;31.03;;
80732;SDS011;70130;44.534;18.678;2024-02-15T05:58:23;72.60;;;31.93;;
80732;SDS011;70130;44.534;18.678;2024-02-15T06:00:49;66.47;;;30.70;;
80732;SDS011;70130;44.534;18.678;2024-02-15T06:03:15;62.97;;;29.53;;
80732;SDS011;70130;44.534;18.678;2024-02-15T06:05:42;65.30;;;29.17;;
80732;SDS011;70130;44.534;18.678;2024-02-15T06:08:09;62.70;;;28.00;;
80732;SDS011;70130;44.534;18.678;2024-02-15T06:10:37;64.17;;;27.97;;
80732;SDS011;70130;44.534;18.678;2024-02-15T06:13:03;70.63;;;31.67;;
80732;SDS011;70130;44.534;18.678;2024-02-15T06:15:29;72.40;;;32.47;;
80732;SDS011;70130;44.534;18.678;2024-02-15T06:17:55;84.60;;;36.07;;
80732;SDS011;70130;44.534;18.678;2024-02-15T06:20:20;107.53;;;44.37;;
80732;SDS011;70130;44.534;18.678;2024-02-15T06:22:46;101.87;;;40.30;;
80732;SDS011;70130;44.534;18.678;2024-02-15T06:25:12;88.57;;;39.30;;
80732;SDS011;70130;44.534;18.678;2024-02-15T06:27:40;95.37;;;41.77;;
80732;SDS011;70130;44.534;18.678;2024-02-15T06:30:11;97.13;;;37.50;;
80732;SDS011;70130;44.534;18.678;2024-02-15T06:32:56;98.13;;;36.57;;
80732;SDS011;70130;44.534;18.678;2024-02-15T06:35:41;88.87;;;37.03;;
80732;SDS011;70130;44.534;18.678;2024-02-15T06:38:25;94.50;;;39.00;;
80732;SDS011;70130;44.534;18.678;2024-02-15T06:41:09;97.73;;;40.93;;
80732;SDS011;70130;44.534;18.678;2024-02-15T06:43:35;95.50;;;38.37;;
80732;SDS011;70130;44.534;18.678;2024-02-15T06:46:02;80.90;;;36.70;;
80732;SDS011;70130;44.534;18.678;2024-02-15T06:48:28;85.40;;;36.57;;
80732;SDS011;70130;44.534;18.678;2024-02-15T06:50:53;86.63;;;38.23;;
80732;SDS011;70130;44.534;18.678;2024-02-15T06:53:19;88.93;;;38.43;;
80732;SDS011;70130;44.534;18.678;2024-02-15T06:55:48;80.20;;;37.70;;
80732;SDS011;70130;44.534;18.678;2024-02-15T06:58:15;80.40;;;35.50;;
80732;SDS011;70130;44.534;18.678;2024-02-15T07:00:42;86.83;;;35.70;;
80732;SDS011;70130;44.534;18.678;2024-02-15T07:03:08;75.77;;;34.13;;
80732;SDS011;70130;44.534;18.678;2024-02-15T07:05:34;89.03;;;36.70;;
80732;SDS011;70130;44.534;18.678;2024-02-15T07:08:00;98.17;;;44.17;;
80732;SDS011;70130;44.534;18.678;2024-02-15T07:10:26;109.47;;;44.40;;
80732;SDS011;70130;44.534;18.678;2024-02-15T07:12:52;100.83;;;43.07;;
80732;SDS011;70130;44.534;18.678;2024-02-15T07:15:17;85.03;;;36.43;;
80732;SDS011;70130;44.534;18.678;2024-02-15T07:17:43;93.50;;;44.40;;
80732;SDS011;70130;44.534;18.678;2024-02-15T07:20:11;76.43;;;32.73;;
80732;SDS011;70130;44.534;18.678;2024-02-15T07:22:39;68.82;;;31.65;;
80732;SDS011;70130;44.534;18.678;2024-02-15T07:25:04;63.03;;;29.70;;
80732;SDS011;70130;44.534;18.678;2024-02-15T07:27:30;66.53;;;30.27;;
80732;SDS011;70130;44.534;18.678;2024-02-15T07:29:58;68.17;;;30.70;;
80732;SDS011;70130;44.534;18.678;2024-02-15T07:32:24;60.70;;;28.90;;
80732;SDS011;70130;44.534;18.678;2024-02-15T07:34:50;64.97;;;29.80;;
80732;SDS011;70130;44.534;18.678;2024-02-15T07:37:15;57.30;;;28.50;;
80732;SDS011;70130;44.534;18.678;2024-02-15T07:39:41;57.90;;;28.00;;
80732;SDS011;70130;44.534;18.678;2024-02-15T07:42:07;58.60;;;27.83;;
80732;SDS011;70130;44.534;18.678;2024-02-15T07:44:37;67.70;;;29.43;;
80732;SDS011;70130;44.534;18.678;2024-02-15T07:47:03;66.13;;;29.80;;
80732;SDS011;70130;44.534;18.678;2024-02-15T07:49:29;61.20;;;30.60;;
80732;SDS011;70130;44.534;18.678;2024-02-15T07:51:55;85.67;;;35.87;;
80732;SDS011;70130;44.534;18.678;2024-02-15T07:54:21;81.40;;;37.17;;
80732;SDS011;70130;44.534;18.678;2024-02-15T07:56:47;80.77;;;36.23;;
80732;SDS011;70130;44.534;18.678;2024-02-15T07:59:15;85.63;;;36.80;;
80732;SDS011;70130;44.534;18.678;2024-02-15T08:01:44;81.87;;;35.30;;
80732;SDS011;70130;44.534;18.678;2024-02-15T08:04:18;72.70;;;33.30;;
80732;SDS011;70130;44.534;18.678;2024-02-15T08:06:45;57.83;;;27.88;;
80732;SDS011;70130;44.534;18.678;2024-02-15T08:09:10;55.53;;;27.60;;
80732;SDS011;70130;44.534;18.678;2024-02-15T08:11:39;54.85;;;25.77;;
80732;SDS011;70130;44.534;18.678;2024-02-15T08:14:06;101.97;;;45.67;;
80732;SDS011;70130;44.534;18.678;2024-02-15T08:16:35;93.33;;;45.00;;
80732;SDS011;70130;44.534;18.678;2024-02-15T08:19:00;95.53;;;43.07;;
80732;SDS011;70130;44.534;18.678;2024-02-15T08:21:29;86.53;;;41.00;;
80732;SDS011;70130;44.534;18.678;2024-02-15T08:24:04;101.35;;;48.95;;
80732;SDS011;70130;44.534;18.678;2024-02-15T08:26:35;99.13;;;46.38;;
80732;SDS011;70130;44.534;18.678;2024-02-15T08:29:03;98.72;;;46.90;;
80732;SDS011;70130;44.534;18.678;2024-02-15T08:31:29;103.30;;;48.30;;
80732;SDS011;70130;44.534;18.678;2024-02-15T08:33:59;118.72;;;52.60;;
80732;SDS011;70130;44.534;18.678;2024-02-15T08:36:25;120.78;;;53.38;;
80732;SDS011;70130;44.534;18.678;2024-02-15T08:38:51;113.07;;;53.45;;
80732;SDS011;70130;44.534;18.678;2024-02-15T08:41:17;124.03;;;56.05;;
80732;SDS011;70130;44.534;18.678;2024-02-15T08:43:43;115.88;;;56.83;;
80732;SDS011;70130;44.534;18.678;2024-02-15T08:46:11;115.85;;;52.63;;
80732;SDS011;70130;44.534;18.678;2024-02-15T08:48:37;122.13;;;56.63;;
80732;SDS011;70130;44.534;18.678;2024-02-15T08:51:03;125.00;;;56.55;;
80732;SDS011;70130;44.534;18.678;2024-02-15T08:53:31;118.88;;;55.42;;
80732;SDS011;70130;44.534;18.678;2024-02-15T08:55:57;116.47;;;56.60;;
80732;SDS011;70130;44.534;18.678;2024-02-15T08:58:23;117.80;;;55.55;;
80732;SDS011;70130;44.534;18.678;2024-02-15T09:00:48;114.25;;;57.00;;
80732;SDS011;70130;44.534;18.678;2024-02-15T09:03:14;120.47;;;56.97;;
80732;SDS011;70130;44.534;18.678;2024-02-15T09:05:40;117.20;;;54.13;;
80732;SDS011;70130;44.534;18.678;2024-02-15T09:08:06;113.70;;;54.22;;
80732;SDS011;70130;44.534;18.678;2024-02-15T09:10:32;117.88;;;58.42;;
80732;SDS011;70130;44.534;18.678;2024-02-15T09:12:58;109.95;;;52.70;;
80732;SDS011;70130;44.534;18.678;2024-02-15T09:15:23;104.60;;;50.28;;
80732;SDS011;70130;44.534;18.678;2024-02-15T09:17:50;109.18;;;53.00;;
80732;SDS011;70130;44.534;18.678;2024-02-15T09:20:16;96.70;;;50.15;;
80732;SDS011;70130;44.534;18.678;2024-02-15T09:22:48;100.35;;;51.50;;
80732;SDS011;70130;44.534;18.678;2024-02-15T09:25:16;101.25;;;53.67;;
80732;SDS011;70130;44.534;18.678;2024-02-15T09:27:45;113.43;;;53.88;;
80732;SDS011;70130;44.534;18.678;2024-02-15T09:30:13;103.32;;;51.25;;
80732;SDS011;70130;44.534;18.678;2024-02-15T09:32:40;103.07;;;51.72;;
80732;SDS011;70130;44.534;18.678;2024-02-15T09:35:06;109.60;;;52.50;;
80732;SDS011;70130;44.534;18.678;2024-02-15T09:37:45;113.15;;;54.80;;
80732;SDS011;70130;44.534;18.678;2024-02-15T09:40:14;105.68;;;49.97;;
80732;SDS011;70130;44.534;18.678;2024-02-15T09:42:41;100.00;;;50.05;;
80732;SDS011;70130;44.534;18.678;2024-02-15T09:45:10;108.15;;;50.65;;
80732;SDS011;70130;44.534;18.678;2024-02-15T09:47:46;113.68;;;54.50;;
80732;SDS011;70130;44.534;18.678;2024-02-15T09:50:15;105.18;;;51.83;;
80732;SDS011;70130;44.534;18.678;2024-02-15T09:52:47;101.60;;;52.95;;
80732;SDS011;70130;44.534;18.678;2024-02-15T09:55:16;91.78;;;45.47;;
80732;SDS011;70130;44.534;18.678;2024-02-15T09:57:43;99.05;;;48.22;;
80732;SDS011;70130;44.534;18.678;2024-02-15T10:00:13;89.97;;;45.25;;
80732;SDS011;70130;44.534;18.678;2024-02-15T10:02:40;93.28;;;43.67;;
80732;SDS011;70130;44.534;18.678;2024-02-15T10:05:10;70.47;;;33.58;;
80732;SDS011;70130;44.534;18.678;2024-02-15T10:07:42;41.72;;;22.45;;
80732;SDS011;70130;44.534;18.678;2024-02-15T10:12:47;65.35;;;33.60;;
80732;SDS011;70130;44.534;18.678;2024-02-15T10:18:08;79.35;;;39.05;;
80732;SDS011;70130;44.534;18.678;2024-02-15T10:20:35;77.90;;;37.45;;
80732;SDS011;70130;44.534;18.678;2024-02-15T10:23:10;85.80;;;41.83;;
80732;SDS011;70130;44.534;18.678;2024-02-15T10:25:36;72.85;;;37.15;;
80732;SDS011;70130;44.534;18.678;2024-02-15T10:28:06;81.93;;;39.53;;
80732;SDS011;70130;44.534;18.678;2024-02-15T10:30:33;70.30;;;35.22;;
80732;SDS011;70130;44.534;18.678;2024-02-15T10:33:00;75.88;;;35.17;;
80732;SDS011;70130;44.534;18.678;2024-02-15T10:35:27;84.68;;;40.53;;
80732;SDS011;70130;44.534;18.678;2024-02-15T10:38:04;78.32;;;38.38;;
80732;SDS011;70130;44.534;18.678;2024-02-15T10:40:39;80.82;;;41.88;;
80732;SDS011;70130;44.534;18.678;2024-02-15T10:43:09;75.80;;;39.05;;
80732;SDS011;70130;44.534;18.678;2024-02-15T10:45:39;80.07;;;39.20;;
80732;SDS011;70130;44.534;18.678;2024-02-15T10:48:07;69.88;;;36.42;;
80732;SDS011;70130;44.534;18.678;2024-02-15T10:50:33;71.53;;;34.70;;
80732;SDS011;70130;44.534;18.678;2024-02-15T10:52:59;68.63;;;34.03;;
80732;SDS011;70130;44.534;18.678;2024-02-15T10:55:26;63.00;;;32.25;;
80732;SDS011;70130;44.534;18.678;2024-02-15T10:58:01;58.42;;;27.80;;
80732;SDS011;70130;44.534;18.678;2024-02-15T11:00:31;46.97;;;24.23;;
80732;SDS011;70130;44.534;18.678;2024-02-15T11:03:02;54.92;;;27.80;;
80732;SDS011;70130;44.534;18.678;2024-02-15T11:05:32;46.40;;;23.25;;
80732;SDS011;70130;44.534;18.678;2024-02-15T11:08:00;47.45;;;24.08;;
80732;SDS011;70130;44.534;18.678;2024-02-15T11:10:29;51.60;;;22.55;;
80732;SDS011;70130;44.534;18.678;2024-02-15T11:12:55;33.55;;;18.92;;
80732;SDS011;70130;44.534;18.678;2024-02-15T11:18:41;31.53;;;16.77;;
80732;SDS011;70130;44.534;18.678;2024-02-15T11:21:17;35.78;;;15.00;;
80732;SDS011;70130;44.534;18.678;2024-02-15T11:23:45;38.05;;;18.27;;
80732;SDS011;70130;44.534;18.678;2024-02-15T11:40:20;37.50;;;18.23;;
80732;SDS011;70130;44.534;18.678;2024-02-15T11:43:06;37.20;;;20.38;;
80732;SDS011;70130;44.534;18.678;2024-02-15T11:45:32;36.92;;;19.52;;
80732;SDS011;70130;44.534;18.678;2024-02-15T11:48:09;35.03;;;19.20;;
80732;SDS011;70130;44.534;18.678;2024-02-15T11:50:36;36.55;;;19.05;;
80732;SDS011;70130;44.534;18.678;2024-02-15T11:53:03;38.90;;;20.20;;
80732;SDS011;70130;44.534;18.678;2024-02-15T11:55:36;39.75;;;17.52;;
80732;SDS011;70130;44.534;18.678;2024-02-15T11:58:03;36.70;;;17.75;;
80732;SDS011;70130;44.534;18.678;2024-02-15T12:00:42;38.28;;;18.27;;
80732;SDS011;70130;44.534;18.678;2024-02-15T12:03:27;31.35;;;17.52;;
80732;SDS011;70130;44.534;18.678;2024-02-15T12:06:11;30.85;;;16.20;;
80732;SDS011;70130;44.534;18.678;2024-02-15T12:08:55;31.13;;;15.98;;
80732;SDS011;70130;44.534;18.678;2024-02-15T12:11:40;29.15;;;14.43;;
80732;SDS011;70130;44.534;18.678;2024-02-15T12:14:25;26.50;;;14.85;;
80732;SDS011;70130;44.534;18.678;2024-02-15T12:17:09;26.02;;;12.93;;
80732;SDS011;70130;44.534;18.678;2024-02-15T12:19:55;29.92;;;14.25;;
80732;SDS011;70130;44.534;18.678;2024-02-15T12:24:55;21.40;;;11.02;;
80732;SDS011;70130;44.534;18.678;2024-02-15T12:27:40;22.92;;;12.45;;
80732;SDS011;70130;44.534;18.678;2024-02-15T12:30:17;26.00;;;13.18;;
80732;SDS011;70130;44.534;18.678;2024-02-15T12:32:49;21.50;;;9.75;;
80732;SDS011;70130;44.534;18.678;2024-02-15T12:35:21;18.95;;;10.10;;
80732;SDS011;70130;44.534;18.678;2024-02-15T12:38:02;19.35;;;9.88;;
80732;SDS011;70130;44.534;18.678;2024-02-15T12:40:37;10.77;;;6.03;;
80732;SDS011;70130;44.534;18.678;2024-02-15T12:43:07;11.13;;;6.10;;
80732;SDS011;70130;44.534;18.678;2024-02-15T12:45:40;15.68;;;6.53;;
80732;SDS011;70130;44.534;18.678;2024-02-15T12:48:07;10.30;;;5.45;;
80732;SDS011;70130;44.534;18.678;2024-02-15T12:50:33;10.48;;;5.00;;
80732;SDS011;70130;44.534;18.678;2024-02-15T12:53:00;13.85;;;6.43;;
80732;SDS011;70130;44.534;18.678;2024-02-15T12:55:29;17.92;;;7.05;;
80732;SDS011;70130;44.534;18.678;2024-02-15T12:58:05;14.95;;;7.03;;
80732;SDS011;70130;44.534;18.678;2024-02-15T13:00:40;13.68;;;7.10;;
80732;SDS011;70130;44.534;18.678;2024-02-15T13:03:09;12.38;;;6.15;;
80732;SDS011;70130;44.534;18.678;2024-02-15T13:05:36;11.15;;;5.68;;
80732;SDS011;70130;44.534;18.678;2024-02-15T13:08:02;11.15;;;5.10;;
80732;SDS011;70130;44.534;18.678;2024-02-15T13:10:31;11.98;;;6.13;;
80732;SDS011;70130;44.534;18.678;2024-02-15T13:12:57;10.30;;;5.82;;
80732;SDS011;70130;44.534;18.678;2024-02-15T13:15:23;10.82;;;6.03;;
80732;SDS011;70130;44.534;18.678;2024-02-15T13:17:53;12.18;;;5.13;;
80732;SDS011;70130;44.534;18.678;2024-02-15T13:20:20;11.15;;;6.28;;
80732;SDS011;70130;44.534;18.678;2024-02-15T13:22:57;13.55;;;5.18;;
80732;SDS011;70130;44.534;18.678;2024-02-15T13:25:27;11.15;;;5.05;;
80732;SDS011;70130;44.534;18.678;2024-02-15T13:27:53;8.48;;;5.22;;
80732;SDS011;70130;44.534;18.678;2024-02-15T13:30:19;11.85;;;5.35;;
80732;SDS011;70130;44.534;18.678;2024-02-15T13:32:49;12.30;;;6.23;;
80732;SDS011;70130;44.534;18.678;2024-02-15T13:35:17;14.10;;;7.05;;
80732;SDS011;70130;44.534;18.678;2024-02-15T13:37:51;12.15;;;6.68;;
80732;SDS011;70130;44.534;18.678;2024-02-15T13:40:28;11.70;;;6.07;;
80732;SDS011;70130;44.534;18.678;2024-02-15T13:42:55;14.00;;;7.00;;
80732;SDS011;70130;44.534;18.678;2024-02-15T13:48:04;10.80;;;5.72;;
80732;SDS011;70130;44.534;18.678;2024-02-15T13:50:32;10.30;;;6.28;;
80732;SDS011;70130;44.534;18.678;2024-02-15T13:52:58;12.00;;;6.60;;
80732;SDS011;70130;44.534;18.678;2024-02-15T13:55:24;9.73;;;5.43;;
80732;SDS011;70130;44.534;18.678;2024-02-15T13:57:54;12.20;;;6.35;;
80732;SDS011;70130;44.534;18.678;2024-02-15T14:00:22;7.05;;;4.53;;
80732;SDS011;70130;44.534;18.678;2024-02-15T14:05:14;11.00;;;5.45;;
80732;SDS011;70130;44.534;18.678;2024-02-15T14:07:42;11.38;;;5.38;;
80732;SDS011;70130;44.534;18.678;2024-02-15T14:10:08;12.02;;;6.25;;
80732;SDS011;70130;44.534;18.678;2024-02-15T14:12:36;12.02;;;5.72;;
80732;SDS011;70130;44.534;18.678;2024-02-15T14:15:03;16.58;;;7.57;;
80732;SDS011;70130;44.534;18.678;2024-02-15T14:17:31;15.48;;;7.38;;
80732;SDS011;70130;44.534;18.678;2024-02-15T14:19:57;10.88;;;5.28;;
80732;SDS011;70130;44.534;18.678;2024-02-15T14:22:23;22.23;;;9.55;;
80732;SDS011;70130;44.534;18.678;2024-02-15T14:24:49;16.17;;;7.95;;
80732;SDS011;70130;44.534;18.678;2024-02-15T14:27:16;15.18;;;5.65;;
80732;SDS011;70130;44.534;18.678;2024-02-15T14:29:43;10.18;;;4.93;;
80732;SDS011;70130;44.534;18.678;2024-02-15T14:32:31;15.43;;;6.90;;
80732;SDS011;70130;44.534;18.678;2024-02-15T14:35:15;13.40;;;5.13;;
80732;SDS011;70130;44.534;18.678;2024-02-15T14:37:42;15.98;;;8.20;;
80732;SDS011;70130;44.534;18.678;2024-02-15T14:40:09;14.90;;;6.93;;
80732;SDS011;70130;44.534;18.678;2024-02-15T14:42:38;17.33;;;8.85;;
80732;SDS011;70130;44.534;18.678;2024-02-15T14:45:04;12.02;;;6.38;;
80732;SDS011;70130;44.534;18.678;2024-02-15T14:47:29;30.38;;;12.80;;
80732;SDS011;70130;44.534;18.678;2024-02-15T14:49:55;18.92;;;7.00;;